Lotty — SCMW — position and weather

sailwx.info

Track history (hours):
 
Tides and Currents Weather Stations Pressure Air Temp Water Temp Dewpoint Dewpoint Depression Visibility Wind Speed Wind Dir Waves Ship Positions

Oceanographic research ship Lotty (Sweden)

Detailed information on ship capabilities available from University of Delaware's Ocean Information Center.

Last reported at 2017-May-18 10:41 UTC. Time now 2017-Jun-23 03:47 UTC.
Position N 60°16' E 018°36'.
Warning: this ship's position is 35 days out of date.

Length 17 m.

Type: Sailing vessel. MMSI: 265515440.

Date/timePositionNaut miles runAvg speedWind from/ knotsBaromVisibWave heightAir tempDewpointWater temp
2017-May-18 10:41N 60°16' E 018°36'3 7.9
2017-May-18 10:19N 60°15' E 018°40'0 0.9
2017-May-18 10:00N 60°15' E 018°40'1 1.8
2017-May-18 09:28N 60°15' E 018°38'1 2.0
2017-May-18 09:00N 60°16' E 018°38'0 0.6
2017-May-18 08:29N 60°16' E 018°38'1 1.9
2017-May-18 08:00N 60°16' E 018°36'4 4.6
2017-May-18 07:07N 60°19' E 018°31'1 0.1
2017-May-17 17:49N 60°20' E 018°29'614.5
2017-May-17 17:23N 60°15' E 018°38'2 3.8
2017-May-17 16:56N 60°16' E 018°41'4 8.7
2017-May-17 16:27N 60°13' E 018°48'5 6.0
2017-May-17 15:35N 60°12' E 018°58'311.1
2017-May-17 15:21N 60°10' E 018°59'3 5.7
2017-May-17 14:53N 60°07' E 018°57'4 9.8
2017-May-17 14:29N 60°03' E 018°57'10 3.8
2017-May-17 11:48N 59°56' E 019°12'2 4.7
2017-May-17 11:28N 59°55' E 019°10'11 2.4
2017-May-17 06:59N 60°05' E 019°00'815.1
2017-May-17 06:28N 60°11' E 018°53'918.4
2017-May-17 05:59N 60°16' E 018°37'611.5
2017-May-17 05:28N 60°20' E 018°29'0 0.0
2017-May-16 17:33N 60°20' E 018°29'111.8
2017-May-16 17:30N 60°20' E 018°29'1 1.1
2017-May-16 16:44N 60°19' E 018°30'  
Track history (hours):
 
Tides and Currents Weather Stations Pressure Air Temp Water Temp Dewpoint Dewpoint Depression Visibility Wind Speed Wind Dir Waves Ship Positions

Oceanographic research ship Lotty (Sweden)

Detailed information on ship capabilities available from University of Delaware's Ocean Information Center.

Last reported at 2017-May-18 10:41 UTC. Time now 2017-Jun-23 03:47 UTC.
Position N 60°16' E 018°36'.
Warning: this ship's position is 35 days out of date.

Length 17 m.

Type: Sailing vessel. MMSI: 265515440.

Date/timePositionNaut miles runAvg speedWind from/ knotsBaromVisibWave heightAir tempDewpointWater temp
2017-May-18 10:41N 60°16' E 018°36'3 7.9
2017-May-18 10:19N 60°15' E 018°40'0 0.9
2017-May-18 10:00N 60°15' E 018°40'1 1.8
2017-May-18 09:28N 60°15' E 018°38'1 2.0
2017-May-18 09:00N 60°16' E 018°38'0 0.6
2017-May-18 08:29N 60°16' E 018°38'1 1.9
2017-May-18 08:00N 60°16' E 018°36'4 4.6
2017-May-18 07:07N 60°19' E 018°31'1 0.1
2017-May-17 17:49N 60°20' E 018°29'614.5
2017-May-17 17:23N 60°15' E 018°38'2 3.8
2017-May-17 16:56N 60°16' E 018°41'4 8.7
2017-May-17 16:27N 60°13' E 018°48'5 6.0
2017-May-17 15:35N 60°12' E 018°58'311.1
2017-May-17 15:21N 60°10' E 018°59'3 5.7
2017-May-17 14:53N 60°07' E 018°57'4 9.8
2017-May-17 14:29N 60°03' E 018°57'10 3.8
2017-May-17 11:48N 59°56' E 019°12'2 4.7
2017-May-17 11:28N 59°55' E 019°10'11 2.4
2017-May-17 06:59N 60°05' E 019°00'815.1
2017-May-17 06:28N 60°11' E 018°53'918.4
2017-May-17 05:59N 60°16' E 018°37'611.5
2017-May-17 05:28N 60°20' E 018°29'0 0.0
2017-May-16 17:33N 60°20' E 018°29'111.8
2017-May-16 17:30N 60°20' E 018°29'1 1.1
2017-May-16 16:44N 60°19' E 018°30'  

Dump ship's entire track history